Time;durP1;ratioP1;P1;durP2;ratioP2;P2;SDS_P1;SDS_P2;PMS_P1;PMS_P2;Temp;Humidity;BMP_temperature;BMP_pressure;BME280_temperature;BME280_humidity;BME280_pressure;Samples;Min_cycle;Max_cycle;Signal;HPM_P1;HPM_P2
2023/03/29 00:02:08;;;;;;;0.87;0.87;;;;;;;;;;4955891;28;20205;-55
2023/03/29 00:04:34;;;;;;;1.10;1.10;;;;;;;;;;4957327;28;20210;-55
2023/03/29 00:07:03;;;;;;;1.10;1.10;;;;;;;;;;4933962;28;20240;-55
2023/03/29 00:09:30;;;;;;;1.13;1.13;;;;;;;;;;4956572;28;20293;-54
2023/03/29 00:11:56;;;;;;;1.00;1.00;;;;;;;;;;4953358;28;20601;-55
2023/03/29 00:14:23;;;;;;;1.00;1.00;;;;;;;;;;4931063;28;20190;-55
2023/03/29 00:16:49;;;;;;;1.00;1.00;;;;;;;;;;4951149;28;20198;-55
2023/03/29 00:19:15;;;;;;;1.00;1.00;;;;;;;;;;4954717;28;20553;-55
2023/03/29 00:21:41;;;;;;;1.00;1.00;;;;;;;;;;4956204;28;20249;-55
2023/03/29 00:24:07;;;;;;;0.97;0.97;;;;;;;;;;4954007;28;20194;-55
2023/03/29 00:26:32;;;;;;;0.93;0.93;;;;;;;;;;4954442;28;20217;-54
2023/03/29 00:28:59;;;;;;;1.10;1.10;;;;;;;;;;4956077;28;20698;-56
2023/03/29 00:31:25;;;;;;;1.00;1.00;;;;;;;;;;4953176;28;20610;-54
2023/03/29 00:33:51;;;;;;;1.30;1.30;;;;;;;;;;4956572;28;20586;-54
2023/03/29 00:36:17;;;;;;;1.30;1.30;;;;;;;;;;4954289;28;20190;-54
2023/03/29 00:38:43;;;;;;;1.40;1.40;;;;;;;;;;4954519;28;20186;-55
2023/03/29 00:41:09;;;;;;;1.27;1.27;;;;;;;;;;4952099;28;20237;-59
2023/03/29 00:44:11;;;;;;;1.60;1.60;;;;;;;;;;4955952;28;20191;-55
2023/03/29 00:46:37;;;;;;;1.40;1.40;;;;;;;;;;4861040;29;20205;-56
2023/03/29 00:49:07;;;;;;;1.47;1.47;;;;;;;;;;4938082;28;20202;-55
2023/03/29 00:51:33;;;;;;;1.40;1.40;;;;;;;;;;4956764;28;20449;-55
2023/03/29 00:54:00;;;;;;;1.50;1.50;;;;;;;;;;4955749;28;20286;-55
2023/03/29 00:56:29;;;;;;;1.33;1.33;;;;;;;;;;4957714;28;20249;-54
2023/03/29 00:59:01;;;;;;;1.40;1.40;;;;;;;;;;4952796;28;20274;-55
2023/03/29 01:01:41;;;;;;;1.20;1.20;;;;;;;;;;4949763;28;20202;-56
2023/03/29 01:04:08;;;;;;;1.40;1.40;;;;;;;;;;4952140;28;20206;-55
2023/03/29 01:06:34;;;;;;;1.10;1.10;;;;;;;;;;4936439;28;20254;-56
2023/03/29 01:09:01;;;;;;;1.40;1.40;;;;;;;;;;4936854;28;20187;-57
2023/03/29 01:11:28;;;;;;;1.40;1.40;;;;;;;;;;4933830;28;20497;-55
2023/03/29 01:13:58;;;;;;;1.20;1.20;;;;;;;;;;4929830;28;20195;-56
2023/03/29 01:16:24;;;;;;;1.30;1.30;;;;;;;;;;4929694;28;20207;-55
2023/03/29 01:18:51;;;;;;;1.30;1.30;;;;;;;;;;4931230;28;20277;-55
2023/03/29 01:21:22;;;;;;;1.40;1.40;;;;;;;;;;4935545;28;20758;-56
2023/03/29 01:24:06;;;;;;;1.30;1.30;;;;;;;;;;4938943;28;20202;-55
2023/03/29 01:26:42;;;;;;;1.60;1.60;;;;;;;;;;4932112;28;20825;-55
2023/03/29 01:29:08;;;;;;;1.30;1.30;;;;;;;;;;4938611;28;20240;-55
2023/03/29 01:31:38;;;;;;;1.30;1.30;;;;;;;;;;4933837;28;20187;-55
2023/03/29 01:34:12;;;;;;;1.40;1.40;;;;;;;;;;4934544;28;20345;-56
2023/03/29 01:36:40;;;;;;;1.40;1.40;;;;;;;;;;4940902;28;20194;-55
2023/03/29 01:39:06;;;;;;;1.30;1.30;;;;;;;;;;4938226;28;20589;-56
2023/03/29 01:41:44;;;;;;;1.10;1.10;;;;;;;;;;4922007;28;20197;-55
2023/03/29 01:44:11;;;;;;;1.17;1.17;;;;;;;;;;4935765;28;20178;-54
2023/03/29 01:46:47;;;;;;;1.20;1.20;;;;;;;;;;4932595;28;20190;-55
2023/03/29 01:49:19;;;;;;;1.10;1.10;;;;;;;;;;4935130;28;20199;-55
2023/03/29 01:51:50;;;;;;;0.90;0.90;;;;;;;;;;4937567;28;20191;-55
2023/03/29 01:54:18;;;;;;;1.10;1.10;;;;;;;;;;4936194;28;20352;-55
2023/03/29 01:56:44;;;;;;;1.00;1.00;;;;;;;;;;4931953;28;20564;-56
2023/03/29 01:59:11;;;;;;;1.10;1.10;;;;;;;;;;4936870;28;20723;-58
2023/03/29 02:01:38;;;;;;;1.40;1.40;;;;;;;;;;4929403;28;20222;-56
2023/03/29 02:04:04;;;;;;;1.20;1.20;;;;;;;;;;4938400;28;20843;-55
2023/03/29 02:06:31;;;;;;;1.00;1.00;;;;;;;;;;4944895;28;20266;-54
2023/03/29 02:08:57;;;;;;;1.10;1.10;;;;;;;;;;4924946;28;20628;-54
2023/03/29 02:11:24;;;;;;;1.00;1.00;;;;;;;;;;4953690;28;20241;-56
2023/03/29 02:13:50;;;;;;;0.90;0.90;;;;;;;;;;4939305;28;20198;-55
2023/03/29 02:16:16;;;;;;;1.00;1.00;;;;;;;;;;4953950;28;20225;-54
2023/03/29 02:18:43;;;;;;;1.20;1.20;;;;;;;;;;4957733;28;20190;-55
2023/03/29 02:21:09;;;;;;;0.80;0.80;;;;;;;;;;4941175;28;20198;-59
2023/03/29 02:23:44;;;;;;;1.10;1.10;;;;;;;;;;4952784;28;20615;-55
2023/03/29 02:26:10;;;;;;;0.93;0.93;;;;;;;;;;4957872;28;20671;-57
2023/03/29 02:28:36;;;;;;;0.90;0.90;;;;;;;;;;4937750;28;20300;-55
2023/03/29 02:31:05;;;;;;;1.07;1.07;;;;;;;;;;4951217;28;20221;-55
2023/03/29 02:33:33;;;;;;;0.90;0.90;;;;;;;;;;4947550;28;20191;-54
2023/03/29 02:36:00;;;;;;;0.97;0.97;;;;;;;;;;4961942;28;20562;-54
2023/03/29 02:38:26;;;;;;;0.93;0.93;;;;;;;;;;4954252;28;20645;-54
2023/03/29 02:40:54;;;;;;;0.80;0.80;;;;;;;;;;4942038;28;20199;-55
2023/03/29 02:43:20;;;;;;;0.90;0.90;;;;;;;;;;4945436;28;20194;-54
2023/03/29 02:45:46;;;;;;;1.00;1.00;;;;;;;;;;4955079;28;20553;-54
2023/03/29 02:48:13;;;;;;;1.10;1.10;;;;;;;;;;4954588;28;20202;-54
2023/03/29 02:50:39;;;;;;;0.90;0.90;;;;;;;;;;4939999;28;20208;-54
2023/03/29 02:53:07;;;;;;;1.00;1.00;;;;;;;;;;4954945;28;21722;-54
2023/03/29 02:55:35;;;;;;;1.10;1.10;;;;;;;;;;4958049;28;20750;-54
2023/03/29 02:58:07;;;;;;;0.90;0.90;;;;;;;;;;4953061;28;20217;-54
2023/03/29 03:00:37;;;;;;;1.00;1.00;;;;;;;;;;4949649;28;20202;-54
2023/03/29 03:03:03;;;;;;;1.00;1.00;;;;;;;;;;4950504;28;20191;-55
2023/03/29 03:05:29;;;;;;;0.80;0.80;;;;;;;;;;4954882;28;20198;-54
2023/03/29 03:07:57;;;;;;;0.90;0.90;;;;;;;;;;4958652;28;20274;-55
2023/03/29 03:10:23;;;;;;;1.00;1.00;;;;;;;;;;4951841;28;20205;-55
2023/03/29 03:12:49;;;;;;;0.90;0.90;;;;;;;;;;4956765;28;24708;-54
2023/03/29 03:15:15;;;;;;;1.07;1.07;;;;;;;;;;4954851;28;20728;-55
2023/03/29 03:17:41;;;;;;;1.00;1.00;;;;;;;;;;4957271;28;20206;-55
2023/03/29 03:20:11;;;;;;;0.90;0.90;;;;;;;;;;4955056;28;20199;-56
2023/03/29 03:22:38;;;;;;;0.80;0.80;;;;;;;;;;4955088;28;20210;-54
2023/03/29 03:25:04;;;;;;;1.00;1.00;;;;;;;;;;4955499;28;20603;-54
2023/03/29 03:27:30;;;;;;;0.90;0.90;;;;;;;;;;4955935;28;20274;-55
2023/03/29 03:29:56;;;;;;;0.90;0.90;;;;;;;;;;4956024;28;20695;-54
2023/03/29 03:32:22;;;;;;;1.10;1.10;;;;;;;;;;4958966;28;20195;-54
2023/03/29 03:34:48;;;;;;;1.00;1.00;;;;;;;;;;4959810;28;20253;-55
2023/03/29 03:37:14;;;;;;;1.10;1.10;;;;;;;;;;4960552;28;20213;-54
2023/03/29 03:39:40;;;;;;;0.90;0.90;;;;;;;;;;4959391;28;20235;-54
2023/03/29 03:42:06;;;;;;;1.00;1.00;;;;;;;;;;4959001;28;20194;-54
2023/03/29 03:44:32;;;;;;;1.07;1.07;;;;;;;;;;4960845;28;20217;-55
2023/03/29 03:46:58;;;;;;;1.00;1.00;;;;;;;;;;4958082;28;20233;-55
2023/03/29 03:49:24;;;;;;;1.00;1.00;;;;;;;;;;4960120;28;20197;-54
2023/03/29 03:51:51;;;;;;;1.10;1.10;;;;;;;;;;4958374;28;20807;-55
2023/03/29 03:54:17;;;;;;;1.07;1.07;;;;;;;;;;4960552;28;20292;-55
2023/03/29 03:56:43;;;;;;;0.90;0.90;;;;;;;;;;4959568;28;20213;-56
2023/03/29 03:59:09;;;;;;;0.80;0.80;;;;;;;;;;4954014;28;20612;-54
2023/03/29 04:01:36;;;;;;;0.90;0.90;;;;;;;;;;4953574;28;20200;-54
2023/03/29 04:04:03;;;;;;;0.83;0.83;;;;;;;;;;4961001;28;20641;-55
2023/03/29 04:06:29;;;;;;;1.00;1.00;;;;;;;;;;4962523;28;21506;-54
2023/03/29 04:08:55;;;;;;;1.00;1.00;;;;;;;;;;4956032;28;20223;-55
2023/03/29 04:11:21;;;;;;;0.90;0.90;;;;;;;;;;4956328;28;20197;-55
2023/03/29 04:13:47;;;;;;;0.90;0.90;;;;;;;;;;4959628;28;20194;-57
2023/03/29 04:16:13;;;;;;;1.00;1.00;;;;;;;;;;4957321;28;20194;-55
2023/03/29 04:18:39;;;;;;;0.90;0.90;;;;;;;;;;4959966;28;20199;-55
2023/03/29 04:21:05;;;;;;;1.00;1.00;;;;;;;;;;4954245;28;20179;-56
2023/03/29 04:23:31;;;;;;;0.90;0.90;;;;;;;;;;4957257;28;20207;-55
2023/03/29 04:25:58;;;;;;;1.00;1.00;;;;;;;;;;4953306;28;20843;-55
2023/03/29 04:28:24;;;;;;;0.90;0.90;;;;;;;;;;4955594;28;20226;-55
2023/03/29 04:30:50;;;;;;;0.90;0.90;;;;;;;;;;4951819;28;20325;-54
2023/03/29 04:33:16;;;;;;;1.00;1.00;;;;;;;;;;4953126;28;20222;-55
2023/03/29 04:35:42;;;;;;;0.80;0.80;;;;;;;;;;4934940;28;20588;-56
2023/03/29 04:38:09;;;;;;;1.20;1.20;;;;;;;;;;4947999;28;20386;-55
2023/03/29 04:40:35;;;;;;;1.00;1.00;;;;;;;;;;4948902;28;20664;-55
2023/03/29 04:43:01;;;;;;;1.00;1.00;;;;;;;;;;4940689;28;20191;-55
2023/03/29 04:45:28;;;;;;;1.10;1.10;;;;;;;;;;4949130;28;20194;-54
2023/03/29 04:48:00;;;;;;;1.10;1.10;;;;;;;;;;4952183;28;20219;-55
2023/03/29 04:50:27;;;;;;;1.10;1.10;;;;;;;;;;4956627;28;20878;-54
2023/03/29 04:52:53;;;;;;;1.00;1.00;;;;;;;;;;4952210;28;20591;-55
2023/03/29 04:55:19;;;;;;;0.90;0.90;;;;;;;;;;4958325;28;20190;-54
2023/03/29 04:57:45;;;;;;;1.00;1.00;;;;;;;;;;4953986;28;21702;-54
2023/03/29 05:00:14;;;;;;;1.10;1.10;;;;;;;;;;4952406;28;20243;-55
2023/03/29 05:02:43;;;;;;;1.00;1.00;;;;;;;;;;4955168;28;20201;-54
2023/03/29 05:05:10;;;;;;;1.00;1.00;;;;;;;;;;4953025;28;20906;-55
2023/03/29 05:07:36;;;;;;;0.80;0.80;;;;;;;;;;4954731;28;20237;-54
2023/03/29 05:10:02;;;;;;;1.10;1.10;;;;;;;;;;4950594;28;20198;-55
2023/03/29 05:12:28;;;;;;;1.00;1.00;;;;;;;;;;4955371;28;20198;-55
2023/03/29 05:14:55;;;;;;;1.00;1.00;;;;;;;;;;4951448;28;20344;-55
2023/03/29 05:17:21;;;;;;;1.10;1.10;;;;;;;;;;4946923;28;20278;-55
2023/03/29 05:19:47;;;;;;;1.00;1.00;;;;;;;;;;4947265;28;20206;-55
2023/03/29 05:22:14;;;;;;;1.00;1.00;;;;;;;;;;4951930;28;20195;-55
2023/03/29 05:24:40;;;;;;;0.90;0.90;;;;;;;;;;4948435;28;21279;-55
2023/03/29 05:27:06;;;;;;;0.93;0.93;;;;;;;;;;4949525;28;20310;-56
2023/03/29 05:29:32;;;;;;;0.97;0.97;;;;;;;;;;4950502;28;20192;-55
2023/03/29 05:31:58;;;;;;;0.90;0.90;;;;;;;;;;4933673;28;20701;-57
2023/03/29 05:34:25;;;;;;;1.00;1.00;;;;;;;;;;4971840;28;20186;-53
2023/03/29 05:36:51;;;;;;;1.10;1.10;;;;;;;;;;4969930;28;20689;-54
2023/03/29 05:39:17;;;;;;;0.90;0.90;;;;;;;;;;4975531;28;20265;-54
2023/03/29 05:41:43;;;;;;;1.10;1.10;;;;;;;;;;4972431;28;20330;-54
2023/03/29 05:44:09;;;;;;;1.10;1.10;;;;;;;;;;4971860;28;20600;-54
2023/03/29 05:46:35;;;;;;;0.90;0.90;;;;;;;;;;4978269;28;20291;-54
2023/03/29 05:49:01;;;;;;;1.00;1.00;;;;;;;;;;4977477;28;20193;-54
2023/03/29 05:51:27;;;;;;;0.90;0.90;;;;;;;;;;4975704;28;20195;-54
2023/03/29 05:53:53;;;;;;;1.20;1.20;;;;;;;;;;4976042;28;20191;-54
2023/03/29 05:56:19;;;;;;;1.07;1.07;;;;;;;;;;4976704;28;20201;-54
2023/03/29 05:58:45;;;;;;;0.80;0.80;;;;;;;;;;4975816;28;20279;-55
2023/03/29 06:01:12;;;;;;;0.90;0.90;;;;;;;;;;4976090;28;20206;-54
2023/03/29 06:03:38;;;;;;;1.00;1.00;;;;;;;;;;4975318;28;20198;-54
2023/03/29 06:06:04;;;;;;;1.00;1.00;;;;;;;;;;4974855;28;20570;-54
2023/03/29 06:08:30;;;;;;;0.90;0.90;;;;;;;;;;4977404;28;20785;-54
2023/03/29 06:11:00;;;;;;;0.90;0.90;;;;;;;;;;4978446;28;20236;-54
2023/03/29 06:13:26;;;;;;;0.90;0.90;;;;;;;;;;4974592;28;20248;-54
2023/03/29 06:15:53;;;;;;;1.10;1.10;;;;;;;;;;4979081;28;20607;-54
2023/03/29 06:18:22;;;;;;;0.90;0.90;;;;;;;;;;4979717;28;20533;-54
2023/03/29 06:20:51;;;;;;;1.00;1.00;;;;;;;;;;4979356;28;20191;-54
2023/03/29 06:23:18;;;;;;;0.90;0.90;;;;;;;;;;4976377;28;20593;-54
2023/03/29 06:25:44;;;;;;;0.90;0.90;;;;;;;;;;4975137;28;20191;-54
2023/03/29 06:28:10;;;;;;;1.00;1.00;;;;;;;;;;4978618;28;20735;-54
2023/03/29 06:30:37;;;;;;;1.07;1.07;;;;;;;;;;4979056;28;20670;-54
2023/03/29 06:33:05;;;;;;;0.90;0.90;;;;;;;;;;4980092;28;20241;-54
2023/03/29 06:35:31;;;;;;;1.00;1.00;;;;;;;;;;4977013;28;20340;-55
2023/03/29 06:37:57;;;;;;;0.90;0.90;;;;;;;;;;4979410;28;20636;-54
2023/03/29 06:40:23;;;;;;;1.00;1.00;;;;;;;;;;4980717;28;20194;-54
2023/03/29 06:42:56;;;;;;;0.90;0.90;;;;;;;;;;4980483;28;20193;-55
2023/03/29 06:45:22;;;;;;;0.90;0.90;;;;;;;;;;4981778;28;20190;-60
2023/03/29 06:47:48;;;;;;;1.30;1.30;;;;;;;;;;4978898;28;20218;-54
2023/03/29 06:50:16;;;;;;;1.10;1.10;;;;;;;;;;4982176;28;20682;-54
2023/03/29 06:52:42;;;;;;;1.10;1.10;;;;;;;;;;4978475;28;20198;-55
2023/03/29 06:55:08;;;;;;;1.00;1.00;;;;;;;;;;4982344;28;20570;-55
2023/03/29 06:57:34;;;;;;;1.10;1.10;;;;;;;;;;4981230;28;20225;-54
2023/03/29 07:00:00;;;;;;;1.00;1.00;;;;;;;;;;4981250;28;20195;-54
2023/03/29 07:02:27;;;;;;;1.20;1.20;;;;;;;;;;4980754;28;20241;-54
2023/03/29 07:04:54;;;;;;;1.47;1.47;;;;;;;;;;4977491;28;20317;-54
2023/03/29 07:07:21;;;;;;;1.50;1.50;;;;;;;;;;4979782;28;20297;-54
2023/03/29 07:09:52;;;;;;;1.40;1.40;;;;;;;;;;4980248;28;20217;-55
2023/03/29 07:12:19;;;;;;;1.37;1.37;;;;;;;;;;4978422;28;20210;-54
2023/03/29 07:14:45;;;;;;;1.60;1.60;;;;;;;;;;4983049;28;20214;-55
2023/03/29 07:17:12;;;;;;;1.50;1.50;;;;;;;;;;4981882;28;20198;-54
2023/03/29 07:19:38;;;;;;;1.80;1.70;;;;;;;;;;4979880;28;20218;-54
2023/03/29 07:22:04;;;;;;;1.40;1.40;;;;;;;;;;4973884;28;20562;-54
2023/03/29 07:24:30;;;;;;;1.40;1.40;;;;;;;;;;4979430;28;20206;-55
2023/03/29 07:26:57;;;;;;;1.40;1.40;;;;;;;;;;4980710;28;20206;-54
2023/03/29 07:29:23;;;;;;;1.20;1.20;;;;;;;;;;4979648;28;20202;-54
2023/03/29 07:31:49;;;;;;;1.60;1.60;;;;;;;;;;4978671;28;20220;-55
2023/03/29 07:34:16;;;;;;;1.50;1.50;;;;;;;;;;4976898;28;20183;-54
2023/03/29 07:36:44;;;;;;;1.40;1.40;;;;;;;;;;4980261;28;20220;-54
2023/03/29 07:39:11;;;;;;;1.20;1.20;;;;;;;;;;4978020;28;20424;-54
2023/03/29 07:41:37;;;;;;;1.40;1.40;;;;;;;;;;4981141;28;20210;-54
2023/03/29 07:44:08;;;;;;;1.90;1.80;;;;;;;;;;4977370;28;20194;-54
2023/03/29 07:46:35;;;;;;;1.50;1.50;;;;;;;;;;4975164;28;20553;-55
2023/03/29 07:49:02;;;;;;;1.50;1.50;;;;;;;;;;4976470;28;20324;-55
2023/03/29 07:51:28;;;;;;;1.90;1.80;;;;;;;;;;4980386;28;20219;-54
2023/03/29 07:53:54;;;;;;;1.60;1.60;;;;;;;;;;4979175;28;20190;-54
2023/03/29 07:56:20;;;;;;;2.10;2.00;;;;;;;;;;4977695;28;20279;-55
2023/03/29 07:58:46;;;;;;;2.00;1.90;;;;;;;;;;4979902;28;20201;-55
2023/03/29 08:01:14;;;;;;;2.00;1.90;;;;;;;;;;4980844;28;20226;-54
2023/03/29 08:03:40;;;;;;;1.60;1.60;;;;;;;;;;4969937;28;20206;-54
2023/03/29 08:06:06;;;;;;;1.40;1.40;;;;;;;;;;4970737;28;20195;-55
2023/03/29 08:08:32;;;;;;;1.30;1.30;;;;;;;;;;4978280;28;20245;-54
2023/03/29 08:10:58;;;;;;;1.30;1.30;;;;;;;;;;4978177;28;20213;-55
2023/03/29 08:13:24;;;;;;;1.20;1.20;;;;;;;;;;4978054;28;20652;-55
2023/03/29 08:15:50;;;;;;;1.10;1.10;;;;;;;;;;4981836;28;20202;-55
2023/03/29 08:18:16;;;;;;;1.10;1.10;;;;;;;;;;4975502;28;20209;-55
2023/03/29 08:20:42;;;;;;;1.50;1.50;;;;;;;;;;4979403;28;20187;-55
2023/03/29 08:23:08;;;;;;;2.00;1.90;;;;;;;;;;4978750;28;20194;-54
2023/03/29 08:25:35;;;;;;;2.00;1.90;;;;;;;;;;4964158;28;20694;-54
2023/03/29 08:28:01;;;;;;;1.50;1.50;;;;;;;;;;4980907;28;20222;-55
2023/03/29 08:30:27;;;;;;;1.40;1.40;;;;;;;;;;4982400;28;20666;-55
2023/03/29 08:32:53;;;;;;;1.40;1.40;;;;;;;;;;4977212;28;20829;-54
2023/03/29 08:35:20;;;;;;;1.53;1.53;;;;;;;;;;4978363;28;20841;-55
2023/03/29 08:37:46;;;;;;;1.67;1.67;;;;;;;;;;4976403;28;20198;-55
2023/03/29 08:40:16;;;;;;;2.20;2.10;;;;;;;;;;4978713;28;20210;-55
2023/03/29 08:43:01;;;;;;;2.00;1.90;;;;;;;;;;4981823;28;20190;-55
2023/03/29 08:45:35;;;;;;;2.10;2.00;;;;;;;;;;4979559;28;20202;-55
2023/03/29 08:48:07;;;;;;;2.33;2.23;;;;;;;;;;4975315;28;20209;-55
2023/03/29 08:50:35;;;;;;;2.10;2.00;;;;;;;;;;4977448;28;20186;-55
2023/03/29 08:53:03;;;;;;;2.10;2.00;;;;;;;;;;4965970;28;20356;-55
2023/03/29 08:55:37;;;;;;;2.10;2.00;;;;;;;;;;4978742;28;20285;-55
2023/03/29 08:58:03;;;;;;;2.30;2.20;;;;;;;;;;4973139;28;20202;-54
2023/03/29 09:00:55;;;;;;;1.90;1.80;;;;;;;;;;4978189;28;20199;-54
2023/03/29 09:03:25;;;;;;;1.90;1.80;;;;;;;;;;4973287;28;20304;-55
2023/03/29 09:05:53;;;;;;;1.60;1.60;;;;;;;;;;4976895;28;20599;-55
2023/03/29 09:08:19;;;;;;;1.80;1.70;;;;;;;;;;4971009;28;20238;-54
2023/03/29 09:10:46;;;;;;;1.50;1.50;;;;;;;;;;4981629;28;20714;-55
2023/03/29 09:13:12;;;;;;;1.50;1.50;;;;;;;;;;4977612;28;20260;-55
2023/03/29 09:15:41;;;;;;;1.60;1.60;;;;;;;;;;4980208;28;20193;-57
2023/03/29 09:18:16;;;;;;;2.00;1.90;;;;;;;;;;4974817;28;20205;-54
2023/03/29 09:21:00;;;;;;;2.30;2.20;;;;;;;;;;4967441;28;20189;-54
2023/03/29 09:23:29;;;;;;;2.00;1.90;;;;;;;;;;4977357;28;20296;-55
2023/03/29 09:25:55;;;;;;;2.20;2.10;;;;;;;;;;4979147;28;20226;-54
2023/03/29 09:28:24;;;;;;;1.83;1.73;;;;;;;;;;4979217;28;20257;-57
2023/03/29 09:30:51;;;;;;;2.20;2.10;;;;;;;;;;4977960;28;20278;-55
2023/03/29 09:33:24;;;;;;;2.20;2.10;;;;;;;;;;4977814;28;20187;-55
2023/03/29 09:35:53;;;;;;;2.20;2.10;;;;;;;;;;4980041;28;20584;-59
2023/03/29 09:38:19;;;;;;;2.00;1.90;;;;;;;;;;4973005;28;20199;-55
2023/03/29 09:40:47;;;;;;;2.27;2.17;;;;;;;;;;4977359;28;20194;-55
2023/03/29 09:43:14;;;;;;;2.00;1.90;;;;;;;;;;4977120;28;20537;-55
2023/03/29 09:45:40;;;;;;;2.03;1.93;;;;;;;;;;4982410;28;20198;-54
2023/03/29 09:48:15;;;;;;;1.70;1.70;;;;;;;;;;4975368;28;20232;-55
2023/03/29 09:50:46;;;;;;;1.20;1.20;;;;;;;;;;4983062;28;20653;-54
2023/03/29 09:53:13;;;;;;;1.30;1.30;;;;;;;;;;4979321;28;20206;-54
2023/03/29 09:55:39;;;;;;;1.30;1.30;;;;;;;;;;4981453;28;20249;-55
2023/03/29 09:58:12;;;;;;;1.30;1.30;;;;;;;;;;4978494;28;20309;-55
2023/03/29 10:00:38;;;;;;;1.40;1.40;;;;;;;;;;4972473;28;20201;-55
2023/03/29 10:03:04;;;;;;;1.30;1.30;;;;;;;;;;4973288;28;20205;-54
2023/03/29 10:05:31;;;;;;;1.40;1.40;;;;;;;;;;4976352;28;20190;-54
2023/03/29 10:07:58;;;;;;;2.20;2.10;;;;;;;;;;4978485;28;20335;-54
2023/03/29 10:10:28;;;;;;;2.30;2.20;;;;;;;;;;4979221;28;20183;-54
2023/03/29 10:12:56;;;;;;;2.30;2.20;;;;;;;;;;4979977;28;20583;-54
2023/03/29 10:15:22;;;;;;;1.60;1.60;;;;;;;;;;4980094;28;20190;-54
2023/03/29 10:17:48;;;;;;;1.50;1.50;;;;;;;;;;4981786;28;20666;-56
2023/03/29 10:20:18;;;;;;;1.30;1.30;;;;;;;;;;4979418;28;20285;-54
2023/03/29 10:22:48;;;;;;;1.30;1.30;;;;;;;;;;4981778;28;20621;-54
2023/03/29 10:25:15;;;;;;;1.40;1.40;;;;;;;;;;4983495;28;20802;-53
2023/03/29 10:27:42;;;;;;;1.20;1.20;;;;;;;;;;4978831;28;20249;-55
2023/03/29 10:30:10;;;;;;;2.70;2.60;;;;;;;;;;4981079;28;20653;-54
2023/03/29 10:32:37;;;;;;;1.50;1.50;;;;;;;;;;4978588;28;20225;-54
2023/03/29 10:35:10;;;;;;;1.10;1.10;;;;;;;;;;4962131;28;20224;-55
2023/03/29 10:37:40;;;;;;;1.40;1.40;;;;;;;;;;4981223;28;20199;-55
2023/03/29 10:40:06;;;;;;;1.60;1.60;;;;;;;;;;4977349;28;20763;-56
2023/03/29 10:42:32;;;;;;;2.10;2.00;;;;;;;;;;4980031;28;20186;-54
2023/03/29 10:44:58;;;;;;;1.90;1.80;;;;;;;;;;4981822;28;20191;-55
2023/03/29 10:47:24;;;;;;;3.93;3.73;;;;;;;;;;4982185;28;20253;-54
2023/03/29 10:49:51;;;;;;;1.43;1.43;;;;;;;;;;4981600;28;20193;-55
2023/03/29 10:52:17;;;;;;;2.10;2.00;;;;;;;;;;4982126;28;20665;-59
2023/03/29 10:54:43;;;;;;;2.00;1.90;;;;;;;;;;4976369;28;20201;-55
2023/03/29 10:57:10;;;;;;;3.80;3.60;;;;;;;;;;4982006;28;20194;-55
2023/03/29 10:59:42;;;;;;;0.80;0.80;;;;;;;;;;4946800;28;20194;-55
2023/03/29 11:02:26;;;;;;;1.10;1.10;;;;;;;;;;4978585;28;20214;-55
2023/03/29 11:05:02;;;;;;;1.20;1.20;;;;;;;;;;4978733;28;20209;-55
2023/03/29 11:07:28;;;;;;;1.20;1.20;;;;;;;;;;4977106;28;20229;-56
2023/03/29 11:09:54;;;;;;;2.57;2.47;;;;;;;;;;4980930;28;20213;-60
2023/03/29 11:12:23;;;;;;;1.40;1.40;;;;;;;;;;4979628;28;20190;-55
2023/03/29 11:14:58;;;;;;;0.90;0.90;;;;;;;;;;4978950;28;20206;-55
2023/03/29 11:17:27;;;;;;;1.00;1.00;;;;;;;;;;4979177;28;20694;-55
2023/03/29 11:19:55;;;;;;;1.00;1.00;;;;;;;;;;4977591;28;20696;-55
2023/03/29 11:22:41;;;;;;;1.10;1.10;;;;;;;;;;4968723;28;20734;-55
2023/03/29 11:25:33;;;;;;;1.10;1.10;;;;;;;;;;4982285;28;20197;-54
2023/03/29 11:28:18;;;;;;;0.97;0.97;;;;;;;;;;4975056;28;20226;-55
2023/03/29 11:30:56;;;;;;;1.80;1.70;;;;;;;;;;4979899;28;20608;-55
2023/03/29 11:33:31;;;;;;;1.83;1.73;;;;;;;;;;4978200;28;20190;-55
2023/03/29 11:36:00;;;;;;;0.90;0.90;;;;;;;;;;4982195;28;20662;-54
2023/03/29 11:38:32;;;;;;;0.70;0.70;;;;;;;;;;4978282;28;20194;-55
2023/03/29 11:41:01;;;;;;;0.80;0.80;;;;;;;;;;4977692;28;20194;-56
2023/03/29 11:43:30;;;;;;;0.70;0.70;;;;;;;;;;4978146;28;20195;-55
2023/03/29 11:45:57;;;;;;;1.10;1.10;;;;;;;;;;4967714;28;20198;-54
2023/03/29 11:48:31;;;;;;;1.50;1.50;;;;;;;;;;4980377;28;20702;-55
2023/03/29 11:50:57;;;;;;;1.40;1.40;;;;;;;;;;4981006;28;20182;-55
2023/03/29 11:53:28;;;;;;;2.00;1.90;;;;;;;;;;4976399;28;20423;-55
2023/03/29 11:55:54;;;;;;;2.00;1.90;;;;;;;;;;4981547;28;20203;-55
2023/03/29 11:58:34;;;;;;;2.30;2.20;;;;;;;;;;4982295;28;20190;-54
2023/03/29 12:01:08;;;;;;;1.85;1.75;;;;;;;;;;4979137;28;20678;-55
2023/03/29 12:03:42;;;;;;;1.00;1.00;;;;;;;;;;4967049;28;20249;-55
2023/03/29 12:06:27;;;;;;;1.10;1.10;;;;;;;;;;4964877;28;20280;-55
2023/03/29 12:09:04;;;;;;;1.10;1.10;;;;;;;;;;4978686;28;20258;-54
2023/03/29 12:11:36;;;;;;;1.00;1.00;;;;;;;;;;4973956;28;20238;-55
2023/03/29 12:14:19;;;;;;;1.10;1.10;;;;;;;;;;4964727;28;20644;-54
2023/03/29 12:16:52;;;;;;;1.10;1.10;;;;;;;;;;4980155;28;20198;-55
2023/03/29 12:19:24;;;;;;;1.13;1.13;;;;;;;;;;4978286;28;20194;-54
2023/03/29 12:21:50;;;;;;;1.10;1.10;;;;;;;;;;4979544;28;20607;-54
2023/03/29 12:24:20;;;;;;;1.00;1.00;;;;;;;;;;4977155;28;20244;-55
2023/03/29 12:27:06;;;;;;;1.10;1.10;;;;;;;;;;4963236;28;20651;-55
2023/03/29 12:29:35;;;;;;;0.90;0.90;;;;;;;;;;4977391;28;20194;-54
2023/03/29 12:32:01;;;;;;;1.40;1.40;;;;;;;;;;4978814;28;20605;-55
2023/03/29 12:34:29;;;;;;;2.50;2.40;;;;;;;;;;4973248;28;20269;-54
2023/03/29 12:37:06;;;;;;;2.00;1.90;;;;;;;;;;4975637;28;20681;-58
2023/03/29 12:39:32;;;;;;;1.63;1.63;;;;;;;;;;4979170;28;20205;-54
2023/03/29 12:42:27;;;;;;;2.00;1.90;;;;;;;;;;4976352;28;20186;-55
2023/03/29 12:44:57;;;;;;;2.00;1.90;;;;;;;;;;4951945;28;20210;-54
2023/03/29 12:47:24;;;;;;;1.90;1.80;;;;;;;;;;4978547;28;20293;-54
2023/03/29 12:49:56;;;;;;;1.10;1.10;;;;;;;;;;4977799;28;20198;-55
2023/03/29 12:52:25;;;;;;;0.90;0.90;;;;;;;;;;4982311;28;20196;-55
2023/03/29 12:54:55;;;;;;;1.40;1.40;;;;;;;;;;4975360;28;20186;-55
2023/03/29 12:57:27;;;;;;;1.20;1.20;;;;;;;;;;4980326;28;20284;-54
2023/03/29 12:59:53;;;;;;;1.20;1.20;;;;;;;;;;4967440;28;20230;-53
2023/03/29 13:02:24;;;;;;;2.70;2.60;;;;;;;;;;4970844;28;20195;-53
2023/03/29 13:04:57;;;;;;;1.35;1.35;;;;;;;;;;4969431;28;20617;-54
2023/03/29 13:07:25;;;;;;;1.20;1.20;;;;;;;;;;4965704;28;20243;-53
2023/03/29 13:10:09;;;;;;;1.50;1.50;;;;;;;;;;4946953;28;20183;-54
2023/03/29 13:12:39;;;;;;;1.40;1.40;;;;;;;;;;4948259;28;20627;-54
2023/03/29 13:15:06;;;;;;;1.50;1.50;;;;;;;;;;4949531;28;20183;-55
2023/03/29 13:17:53;;;;;;;1.58;1.58;;;;;;;;;;4951652;28;20194;-53
2023/03/29 13:20:31;;;;;;;1.60;1.60;;;;;;;;;;4953035;28;20191;-52
2023/03/29 13:23:13;;;;;;;1.60;1.60;;;;;;;;;;4954989;28;20696;-51
2023/03/29 13:25:48;;;;;;;2.00;1.90;;;;;;;;;;4956615;28;20222;-52
2023/03/29 13:28:18;;;;;;;2.15;2.05;;;;;;;;;;4955681;28;20215;-52
2023/03/29 13:30:45;;;;;;;2.20;2.10;;;;;;;;;;4954300;28;20246;-52
2023/03/29 13:33:21;;;;;;;2.10;2.00;;;;;;;;;;4949413;28;20245;-52
2023/03/29 13:36:16;;;;;;;2.40;2.30;;;;;;;;;;4941400;28;20194;-53
2023/03/29 13:38:45;;;;;;;2.22;2.13;;;;;;;;;;4892927;28;20241;-55
2023/03/29 13:41:23;;;;;;;2.30;2.20;;;;;;;;;;4946822;28;20187;-53
2023/03/29 13:43:51;;;;;;;2.30;2.20;;;;;;;;;;4950132;28;20193;-54
2023/03/29 13:46:36;;;;;;;2.20;2.10;;;;;;;;;;4955815;28;21043;-54
2023/03/29 13:49:18;;;;;;;2.00;1.90;;;;;;;;;;4949412;28;20239;-52
2023/03/29 13:51:53;;;;;;;1.30;1.30;;;;;;;;;;4951669;28;20191;-55
2023/03/29 13:54:32;;;;;;;1.10;1.10;;;;;;;;;;4949449;28;20691;-53
2023/03/29 13:57:04;;;;;;;1.20;1.20;;;;;;;;;;4950876;28;20187;-52
2023/03/29 13:59:35;;;;;;;1.40;1.40;;;;;;;;;;4953050;28;20183;-53
2023/03/29 14:02:01;;;;;;;1.23;1.23;;;;;;;;;;4947312;28;20653;-53
2023/03/29 14:04:29;;;;;;;1.10;1.10;;;;;;;;;;4955248;28;21155;-53
2023/03/29 14:06:55;;;;;;;1.67;1.67;;;;;;;;;;4935154;28;20230;-53
2023/03/29 14:09:22;;;;;;;1.90;1.80;;;;;;;;;;4949243;28;21794;-53
2023/03/29 14:11:48;;;;;;;1.50;1.50;;;;;;;;;;4947194;28;20195;-58
2023/03/29 14:14:14;;;;;;;1.60;1.60;;;;;;;;;;4950280;28;20738;-53
2023/03/29 14:16:40;;;;;;;1.85;1.75;;;;;;;;;;4951831;28;20431;-54
2023/03/29 14:19:14;;;;;;;1.73;1.70;;;;;;;;;;4957200;28;20195;-53
2023/03/29 14:21:40;;;;;;;1.20;1.20;;;;;;;;;;4954151;28;20199;-53
2023/03/29 14:24:08;;;;;;;1.20;1.20;;;;;;;;;;4943596;28;20206;-53
2023/03/29 14:26:34;;;;;;;1.10;1.10;;;;;;;;;;4946709;28;20640;-53
2023/03/29 14:29:01;;;;;;;0.90;0.90;;;;;;;;;;4946194;28;20343;-55
2023/03/29 14:31:30;;;;;;;1.90;1.80;;;;;;;;;;4941794;28;20318;-54
2023/03/29 14:33:57;;;;;;;1.90;1.80;;;;;;;;;;4943500;28;20212;-55
2023/03/29 14:36:26;;;;;;;1.90;1.80;;;;;;;;;;4969184;28;20190;-56
2023/03/29 14:38:56;;;;;;;1.93;1.83;;;;;;;;;;4951636;28;20196;-54
2023/03/29 14:41:23;;;;;;;2.33;2.23;;;;;;;;;;4951237;28;20199;-54
2023/03/29 14:43:49;;;;;;;2.33;2.23;;;;;;;;;;4953480;28;20277;-53
2023/03/29 14:46:16;;;;;;;1.93;1.83;;;;;;;;;;4953373;28;20281;-52
2023/03/29 14:48:42;;;;;;;1.80;1.70;;;;;;;;;;4954454;28;20680;-53
2023/03/29 14:51:08;;;;;;;1.60;1.60;;;;;;;;;;4956989;28;20214;-54
2023/03/29 14:53:36;;;;;;;1.77;1.70;;;;;;;;;;4943995;28;20190;-55